Time,TemperatureF,DewpointF,PressureIn,WindDirection,WindDirectionDegrees,WindSpeedMPH,WindSpeedGustMPH,Humidity,HourlyPrecipIn,Conditions,Clouds,dailyrainin,SoftwareType,DateUTC
2013-03-08 00:00:00,30.7,29.2,29.96,NNW,329,3.0,3.0,94,0.00,,---,0.00,VWS V14.01,2013-03-08 05:00:00,
2013-03-08 00:01:00,30.7,29.2,29.96,North,5,5.0,7.0,94,0.00,,---,0.00,VWS V14.01,2013-03-08 05:01:00,
2013-03-08 00:03:00,30.7,29.2,29.96,NNW,330,2.0,7.0,94,0.00,,---,0.00,VWS V14.01,2013-03-08 05:03:00,
2013-03-08 00:05:00,30.4,28.9,29.95,NNW,330,1.0,7.0,94,0.00,,---,0.00,VWS V14.01,2013-03-08 05:05:00,
2013-03-08 00:06:00,30.6,29.1,29.96,North,351,4.0,6.0,94,0.00,,---,0.00,VWS V14.01,2013-03-08 05:06:00,
2013-03-08 00:10:00,30.4,28.9,29.95,NNW,337,0.0,6.0,94,0.00,,---,0.00,VWS V14.01,2013-03-08 05:10:00,
2013-03-08 00:11:00,30.6,29.1,29.96,NNW,345,3.0,5.0,94,0.00,,---,0.00,VWS V14.01,2013-03-08 05:11:00,
2013-03-08 00:15:00,30.4,28.9,29.95,NE,36,2.0,6.0,94,0.00,,---,0.00,VWS V14.01,2013-03-08 05:15:00,
2013-03-08 00:16:00,30.6,29.1,29.96,North,5,1.0,5.0,94,0.00,,---,0.00,VWS V14.01,2013-03-08 05:16:00,
2013-03-08 00:20:00,30.3,28.8,29.95,NNW,340,1.0,6.0,94,0.00,,---,0.00,VWS V14.01,2013-03-08 05:20:00,
2013-03-08 00:21:00,30.6,29.1,29.96,NW,324,4.0,4.0,94,0.00,,---,0.00,VWS V14.01,2013-03-08 05:21:00,
2013-03-08 00:25:00,30.3,29.0,29.95,NE,56,4.0,10.0,95,0.00,,---,0.00,VWS V14.01,2013-03-08 05:25:00,
2013-03-08 00:26:00,30.6,29.1,29.96,North,350,2.0,6.0,94,0.00,,---,0.00,VWS V14.01,2013-03-08 05:26:00,
2013-03-08 00:30:00,30.3,29.0,29.95,NNW,341,5.0,5.0,95,0.00,,---,0.00,VWS V14.01,2013-03-08 05:30:00,
2013-03-08 00:31:00,30.6,29.1,29.96,NNW,330,0.0,2.0,94,0.00,,---,0.00,VWS V14.01,2013-03-08 05:31:00,
2013-03-08 00:35:00,30.3,29.0,29.94,NW,306,3.0,9.0,95,0.00,,---,0.00,VWS V14.01,2013-03-08 05:35:00,
2013-03-08 00:36:00,30.5,29.0,29.96,NNW,338,6.0,6.0,94,0.00,,---,0.00,VWS V14.01,2013-03-08 05:36:00,
2013-03-08 00:40:00,30.3,29.0,29.94,North,349,7.0,11.0,95,0.00,,---,0.00,VWS V14.01,2013-03-08 05:40:00,
2013-03-08 00:42:00,30.5,29.0,29.96,NNE,12,4.0,6.0,94,0.00,,---,0.00,VWS V14.01,2013-03-08 05:42:00,
2013-03-08 00:45:00,30.3,29.0,29.95,North,5,3.0,7.0,95,0.00,,---,0.00,VWS V14.01,2013-03-08 05:45:00,
2013-03-08 00:47:00,30.5,29.0,29.96,North,5,0.0,12.0,94,0.00,,---,0.00,VWS V14.01,2013-03-08 05:47:00,
2013-03-08 00:50:00,30.3,29.0,29.94,NNW,341,5.0,5.0,95,0.00,,---,0.00,VWS V14.01,2013-03-08 05:50:00,
2013-03-08 00:52:00,30.5,29.0,29.95,North,360,3.0,5.0,94,0.00,,---,0.00,VWS V14.01,2013-03-08 05:52:00,
2013-03-08 00:55:00,30.2,28.9,29.94,NE,48,3.0,9.0,95,0.00,,---,0.00,VWS V14.01,2013-03-08 05:55:00,
2013-03-08 00:57:00,30.5,29.0,29.95,WNW,302,6.0,8.0,94,0.00,,---,0.00,VWS V14.01,2013-03-08 05:57:00,
2013-03-08 01:00:00,30.2,28.9,29.94,NNW,342,4.0,7.0,95,0.00,,---,0.00,VWS V14.01,2013-03-08 06:00:00,
2013-03-08 01:02:00,30.4,28.9,29.95,NW,306,0.0,3.0,94,0.00,,---,0.00,VWS V14.01,2013-03-08 06:02:00,
2013-03-08 01:05:00,30.2,28.9,29.94,North,360,5.0,6.0,95,0.00,,---,0.00,VWS V14.01,2013-03-08 06:05:00,
2013-03-08 01:07:00,30.4,28.9,29.95,North,349,2.0,6.0,94,0.00,,---,0.00,VWS V14.01,2013-03-08 06:07:00,
2013-03-08 01:10:00,30.2,28.9,29.93,NNW,336,3.0,6.0,95,0.00,,---,0.00,VWS V14.01,2013-03-08 06:10:00,
2013-03-08 01:12:00,30.4,28.9,29.95,North,351,2.0,6.0,94,0.00,,---,0.00,VWS V14.01,2013-03-08 06:12:00,
2013-03-08 01:15:00,30.1,28.8,29.93,North,10,2.0,12.0,95,0.00,,---,0.00,VWS V14.01,2013-03-08 06:15:00,
2013-03-08 01:17:00,30.3,28.8,29.95,North,5,0.0,6.0,94,0.00,,---,0.00,VWS V14.01,2013-03-08 06:17:00,
2013-03-08 01:20:00,30.1,28.8,29.93,North,5,2.0,5.0,95,0.00,,---,0.00,VWS V14.01,2013-03-08 06:20:00,
2013-03-08 01:22:00,30.3,29.0,29.95,North,350,7.0,10.0,95,0.00,,---,0.00,VWS V14.01,2013-03-08 06:22:00,
2013-03-08 01:25:00,30.1,28.8,29.93,NNE,28,0.0,6.0,95,0.00,,---,0.00,VWS V14.01,2013-03-08 06:25:00,
2013-03-08 01:27:00,30.3,29.0,29.95,NE,36,2.0,5.0,95,0.00,,---,0.00,VWS V14.01,2013-03-08 06:27:00,
2013-03-08 01:30:00,30.1,28.8,29.93,NW,309,5.0,11.0,95,0.00,,---,0.00,VWS V14.01,2013-03-08 06:30:00,
2013-03-08 01:32:00,30.3,29.0,29.95,NNE,15,4.0,6.0,95,0.00,,---,0.00,VWS V14.01,2013-03-08 06:32:00,
2013-03-08 01:35:00,30.1,28.8,29.93,NW,319,4.0,9.0,95,0.00,,---,0.00,VWS V14.01,2013-03-08 06:35:00,
2013-03-08 01:37:00,30.3,29.0,29.94,NNW,348,3.0,11.0,95,0.00,,---,0.00,VWS V14.01,2013-03-08 06:37:00,
2013-03-08 01:40:00,30.1,28.8,29.92,North,5,3.0,9.0,95,0.00,,---,0.00,VWS V14.01,2013-03-08 06:40:00,
2013-03-08 01:42:00,30.3,29.0,29.95,NNE,30,2.0,7.0,95,0.00,,---,0.00,VWS V14.01,2013-03-08 06:42:00,
2013-03-08 01:45:00,30.0,28.7,29.92,North,351,6.0,6.0,95,0.00,,---,0.00,VWS V14.01,2013-03-08 06:45:00,
2013-03-08 01:47:00,30.3,29.0,29.94,North,5,3.0,5.0,95,0.00,,---,0.00,VWS V14.01,2013-03-08 06:47:00,
2013-03-08 01:50:00,30.0,28.7,29.92,WNW,282,4.0,7.0,95,0.00,,---,0.00,VWS V14.01,2013-03-08 06:50:00,
2013-03-08 01:52:00,30.2,28.9,29.94,NE,36,0.0,9.0,95,0.00,,---,0.00,VWS V14.01,2013-03-08 06:52:00,
2013-03-08 01:55:00,30.0,28.7,29.92,NNE,18,1.0,11.0,95,0.00,,---,0.00,VWS V14.01,2013-03-08 06:55:00,
2013-03-08 01:57:00,30.2,28.9,29.94,North,350,4.0,7.0,95,0.00,,---,0.00,VWS V14.01,2013-03-08 06:57:00,
2013-03-08 02:00:00,30.0,28.7,29.92,ENE,73,2.0,6.0,95,0.00,,---,0.00,VWS V14.01,2013-03-08 07:00:00,
2013-03-08 02:02:00,30.2,28.9,29.94,NE,45,0.0,6.0,95,0.00,,---,0.00,VWS V14.01,2013-03-08 07:02:00,
2013-03-08 02:05:00,30.0,28.7,29.92,North,350,2.0,4.0,95,0.00,,---,0.00,VWS V14.01,2013-03-08 07:05:00,
2013-03-08 02:07:00,30.1,28.8,29.94,North,355,4.0,6.0,95,0.00,,---,0.00,VWS V14.01,2013-03-08 07:07:00,
2013-03-08 02:10:00,30.0,28.7,29.92,North,5,2.0,6.0,95,0.00,,---,0.00,VWS V14.01,2013-03-08 07:10:00,
2013-03-08 02:12:00,30.1,28.8,29.94,NNW,340,1.0,12.0,95,0.00,,---,0.00,VWS V14.01,2013-03-08 07:12:00,
2013-03-08 02:15:00,30.0,28.7,29.92,North,355,3.0,9.0,95,0.00,,---,0.00,VWS V14.01,2013-03-08 07:15:00,
2013-03-08 02:18:00,30.1,28.8,29.93,North,5,4.0,5.0,95,0.00,,---,0.00,VWS V14.01,2013-03-08 07:18:00,
2013-03-08 02:20:00,30.0,28.7,29.92,NNE,15,2.0,7.0,95,0.00,,---,0.00,VWS V14.01,2013-03-08 07:20:00,
2013-03-08 02:23:00,30.1,28.8,29.93,NNE,28,2.0,6.0,95,0.00,,---,0.00,VWS V14.01,2013-03-08 07:23:00,
2013-03-08 02:25:00,30.0,28.7,29.92,WNW,290,1.0,12.0,95,0.00,,---,0.00,VWS V14.01,2013-03-08 07:25:00,
2013-03-08 02:28:00,30.1,28.8,29.93,NNW,334,2.0,11.0,95,0.00,,---,0.00,VWS V14.01,2013-03-08 07:28:00,
2013-03-08 02:30:00,30.0,28.7,29.92,NE,38,2.0,10.0,95,0.00,,---,0.00,VWS V14.01,2013-03-08 07:30:00,
2013-03-08 02:33:00,30.1,28.8,29.93,NNW,336,3.0,9.0,95,0.00,,---,0.00,VWS V14.01,2013-03-08 07:33:00,
2013-03-08 02:35:00,30.0,28.7,29.92,ENE,76,6.0,11.0,95,0.00,,---,0.00,VWS V14.01,2013-03-08 07:35:00,
2013-03-08 02:38:00,30.1,28.8,29.92,North,5,3.0,9.0,95,0.00,,---,0.00,VWS V14.01,2013-03-08 07:38:00,
2013-03-08 02:40:00,30.0,28.7,29.92,North,355,4.0,6.0,95,0.00,,---,0.00,VWS V14.01,2013-03-08 07:40:00,
2013-03-08 02:43:00,30.0,28.7,29.92,North,351,6.0,6.0,95,0.00,,---,0.00,VWS V14.01,2013-03-08 07:43:00,
2013-03-08 02:45:00,30.0,28.7,29.92,NE,34,3.0,6.0,95,0.00,,---,0.00,VWS V14.01,2013-03-08 07:45:00,
2013-03-08 02:48:00,30.0,28.7,29.92,WNW,282,4.0,7.0,95,0.00,,---,0.00,VWS V14.01,2013-03-08 07:48:00,
2013-03-08 02:50:00,30.0,28.7,29.92,NNE,12,3.0,5.0,95,0.00,,---,0.00,VWS V14.01,2013-03-08 07:50:00,
2013-03-08 02:53:00,30.0,28.7,29.92,North,10,3.0,3.0,95,0.00,,---,0.00,VWS V14.01,2013-03-08 07:53:00,
2013-03-08 02:55:00,30.0,28.7,29.92,NNE,30,3.0,10.0,95,0.00,,---,0.00,VWS V14.01,2013-03-08 07:55:00,
2013-03-08 02:58:00,30.0,28.7,29.92,NNW,338,1.0,2.0,95,0.00,,---,0.00,VWS V14.01,2013-03-08 07:58:00,
2013-03-08 03:00:00,30.0,28.7,29.92,North,360,2.0,8.0,95,0.00,,---,0.00,VWS V14.01,2013-03-08 08:00:00,
2013-03-08 03:03:00,30.0,28.7,29.92,North,350,0.0,2.0,95,0.00,,---,0.00,VWS V14.01,2013-03-08 08:03:00,
2013-03-08 03:05:00,30.0,28.7,29.92,NW,309,5.0,9.0,95,0.00,,---,0.00,VWS V14.01,2013-03-08 08:05:00,
2013-03-08 03:08:00,30.0,28.7,29.91,North,360,2.0,3.0,95,0.00,,---,0.00,VWS V14.01,2013-03-08 08:08:00,
2013-03-08 03:10:00,29.9,28.6,29.92,NNW,331,2.0,5.0,95,0.00,,---,0.00,VWS V14.01,2013-03-08 08:10:00,
2013-03-08 03:13:00,30.0,28.7,29.92,North,5,0.0,4.0,95,0.00,,---,0.00,VWS V14.01,2013-03-08 08:13:00,
2013-03-08 03:15:00,29.9,28.6,29.92,NNW,338,2.0,5.0,95,0.00,,---,0.00,VWS V14.01,2013-03-08 08:15:00,
2013-03-08 03:18:00,30.0,28.7,29.92,NNW,343,3.0,3.0,95,0.00,,---,0.00,VWS V14.01,2013-03-08 08:18:00,
2013-03-08 03:20:00,29.9,28.6,29.92,NNW,346,8.0,8.0,95,0.00,,---,0.00,VWS V14.01,2013-03-08 08:20:00,
2013-03-08 03:23:00,30.0,28.7,29.92,NW,324,0.0,2.0,95,0.00,,---,0.00,VWS V14.01,2013-03-08 08:23:00,
2013-03-08 03:25:00,29.9,28.6,29.92,NNW,344,1.0,10.0,95,0.00,,---,0.00,VWS V14.01,2013-03-08 08:25:00,
2013-03-08 03:28:00,30.0,28.7,29.92,NW,314,2.0,3.0,95,0.00,,---,0.00,VWS V14.01,2013-03-08 08:28:00,
2013-03-08 03:30:00,29.9,28.6,29.92,NNW,340,4.0,7.0,95,0.00,,---,0.00,VWS V14.01,2013-03-08 08:30:00,
2013-03-08 03:33:00,30.0,28.7,29.92,East,96,2.0,6.0,95,0.00,,---,0.00,VWS V14.01,2013-03-08 08:33:00,
2013-03-08 03:35:00,29.9,28.6,29.92,NE,46,6.0,9.0,95,0.00,,---,0.00,VWS V14.01,2013-03-08 08:35:00,
2013-03-08 03:38:00,30.0,28.7,29.92,North,5,4.0,6.0,95,0.00,,---,0.00,VWS V14.01,2013-03-08 08:38:00,
2013-03-08 03:40:00,29.9,28.6,29.92,NE,46,2.0,6.0,95,0.00,,---,0.00,VWS V14.01,2013-03-08 08:40:00,
2013-03-08 03:44:00,30.0,28.7,29.92,NNE,22,0.0,3.0,95,0.00,,---,0.00,VWS V14.01,2013-03-08 08:44:00,
2013-03-08 03:45:00,29.9,28.6,29.92,North,11,3.0,7.0,95,0.00,,---,0.00,VWS V14.01,2013-03-08 08:45:00,
2013-03-08 03:49:00,30.0,28.7,29.92,NNW,344,0.0,3.0,95,0.00,,---,0.00,VWS V14.01,2013-03-08 08:49:00,
2013-03-08 03:50:00,29.8,28.5,29.92,NNW,341,4.0,7.0,95,0.00,,---,0.00,VWS V14.01,2013-03-08 08:50:00,
2013-03-08 03:54:00,30.0,28.7,29.92,NNW,344,7.0,8.0,95,0.00,,---,0.00,VWS V14.01,2013-03-08 08:54:00,
2013-03-08 03:55:00,29.8,28.5,29.92,North,360,1.0,6.0,95,0.00,,---,0.00,VWS V14.01,2013-03-08 08:55:00,
2013-03-08 03:59:00,30.0,28.7,29.92,North,360,0.0,2.0,95,0.00,,---,0.00,VWS V14.01,2013-03-08 08:59:00,
2013-03-08 04:00:00,29.8,28.5,29.91,NNW,342,2.0,9.0,95,0.00,,---,0.00,VWS V14.01,2013-03-08 09:00:00,
2013-03-08 04:04:00,30.0,28.7,29.92,NW,326,2.0,5.0,95,0.00,,---,0.00,VWS V14.01,2013-03-08 09:04:00,
2013-03-08 04:05:00,29.8,28.5,29.92,North,5,7.0,10.0,95,0.00,,---,0.00,VWS V14.01,2013-03-08 09:05:00,
2013-03-08 04:09:00,29.9,28.6,29.92,NNE,13,2.0,3.0,95,0.00,,---,0.00,VWS V14.01,2013-03-08 09:09:00,
2013-03-08 04:10:00,29.8,28.5,29.91,NW,323,1.0,7.0,95,0.00,,---,0.00,VWS V14.01,2013-03-08 09:10:00,
2013-03-08 04:14:00,29.9,28.6,29.92,NNE,25,0.0,4.0,95,0.00,,---,0.00,VWS V14.01,2013-03-08 09:14:00,
2013-03-08 04:15:00,29.8,28.5,29.91,North,360,0.0,5.0,95,0.00,,---,0.00,VWS V14.01,2013-03-08 09:15:00,
2013-03-08 04:19:00,29.9,28.6,29.92,WNW,286,3.0,8.0,95,0.00,,---,0.00,VWS V14.01,2013-03-08 09:19:00,
2013-03-08 04:20:00,29.8,28.5,29.91,NNW,338,4.0,5.0,95,0.00,,---,0.00,VWS V14.01,2013-03-08 09:20:00,
2013-03-08 04:24:00,29.9,28.6,29.92,NNW,347,0.0,6.0,95,0.00,,---,0.00,VWS V14.01,2013-03-08 09:24:00,
2013-03-08 04:25:00,29.7,28.5,29.92,NNW,335,3.0,7.0,95,0.00,,---,0.00,VWS V14.01,2013-03-08 09:25:00,
2013-03-08 04:29:00,29.9,28.6,29.92,NNW,329,4.0,5.0,95,0.00,,---,0.00,VWS V14.01,2013-03-08 09:29:00,
2013-03-08 04:30:00,29.7,28.5,29.92,NNE,21,1.0,9.0,95,0.00,,---,0.00,VWS V14.01,2013-03-08 09:30:00,
2013-03-08 04:34:00,29.9,28.6,29.92,NNW,336,4.0,6.0,95,0.00,,---,0.00,VWS V14.01,2013-03-08 09:34:00,
2013-03-08 04:35:00,29.7,28.5,29.92,NNE,27,3.0,4.0,95,0.00,,---,0.00,VWS V14.01,2013-03-08 09:35:00,
2013-03-08 04:39:00,29.9,28.6,29.92,ENE,57,3.0,5.0,95,0.00,,---,0.00,VWS V14.01,2013-03-08 09:39:00,
2013-03-08 04:40:00,29.7,28.5,29.92,NNE,13,1.0,10.0,95,0.00,,---,0.00,VWS V14.01,2013-03-08 09:40:00,
2013-03-08 04:44:00,29.9,28.6,29.92,North,355,3.0,7.0,95,0.00,,---,0.00,VWS V14.01,2013-03-08 09:44:00,
2013-03-08 04:45:00,29.7,28.7,29.92,North,5,3.0,6.0,96,0.00,,---,0.00,VWS V14.01,2013-03-08 09:45:00,
2013-03-08 04:49:00,29.8,28.5,29.92,NNE,27,2.0,4.0,95,0.00,,---,0.00,VWS V14.01,2013-03-08 09:49:00,
2013-03-08 04:50:00,29.7,28.7,29.92,NNW,333,3.0,7.0,96,0.00,,---,0.00,VWS V14.01,2013-03-08 09:50:00,
2013-03-08 04:54:00,29.8,28.5,29.91,NNW,335,2.0,8.0,95,0.00,,---,0.00,VWS V14.01,2013-03-08 09:54:00,
2013-03-08 04:55:00,29.7,28.7,29.92,NNE,19,3.0,7.0,96,0.00,,---,0.00,VWS V14.01,2013-03-08 09:55:00,
2013-03-08 04:59:00,29.8,28.5,29.92,NW,317,3.0,10.0,95,0.00,,---,0.00,VWS V14.01,2013-03-08 09:59:00,
2013-03-08 05:00:00,29.7,28.7,29.93,NNE,29,0.0,7.0,96,0.00,,---,0.00,VWS V14.01,2013-03-08 10:00:00,
2013-03-08 05:04:00,29.8,28.5,29.91,WNW,282,3.0,7.0,95,0.00,,---,0.00,VWS V14.01,2013-03-08 10:04:00,
2013-03-08 05:05:00,29.7,28.7,29.93,NNW,329,1.0,8.0,96,0.00,,---,0.00,VWS V14.01,2013-03-08 10:05:00,
2013-03-08 05:10:00,29.8,28.5,29.91,NNE,15,1.0,5.0,95,0.00,,---,0.00,VWS V14.01,2013-03-08 10:10:00,
2013-03-08 05:15:00,29.8,28.5,29.91,East,88,3.0,5.0,95,0.00,,---,0.00,VWS V14.01,2013-03-08 10:15:00,
2013-03-08 05:20:00,29.7,28.5,29.92,North,5,2.0,6.0,95,0.00,,---,0.00,VWS V14.01,2013-03-08 10:20:00,
2013-03-08 05:25:00,29.8,28.5,29.92,NNW,344,3.0,3.0,95,0.00,,---,0.00,VWS V14.01,2013-03-08 10:25:00,
2013-03-08 05:30:00,29.7,28.5,29.92,North,360,2.0,3.0,95,0.00,,---,0.00,VWS V14.01,2013-03-08 10:30:00,
2013-03-08 05:35:00,29.8,28.5,29.92,North,349,0.0,10.0,95,0.00,,---,0.00,VWS V14.01,2013-03-08 10:35:00,
2013-03-08 05:40:00,29.8,28.8,29.92,NNE,24,4.0,6.0,96,0.00,,---,0.00,VWS V14.01,2013-03-08 10:40:00,
2013-03-08 05:45:00,29.7,28.7,29.93,NE,49,2.0,7.0,96,0.00,,---,0.00,VWS V14.01,2013-03-08 10:45:00,
2013-03-08 05:50:00,29.7,28.7,29.92,NNW,328,5.0,6.0,96,0.00,,---,0.00,VWS V14.01,2013-03-08 10:50:00,
2013-03-08 05:55:00,29.7,28.7,29.93,NNW,339,0.0,7.0,96,0.00,,---,0.00,VWS V14.01,2013-03-08 10:55:00,
2013-03-08 06:00:00,29.7,28.7,29.93,ENE,64,2.0,8.0,96,0.00,,---,0.00,VWS V14.01,2013-03-08 11:00:00,
2013-03-08 06:05:00,29.7,28.7,29.93,NNE,24,3.0,3.0,96,0.00,,---,0.00,VWS V14.01,2013-03-08 11:05:00,
2013-03-08 06:10:00,29.7,28.7,29.92,North,355,2.0,9.0,96,0.00,,---,0.00,VWS V14.01,2013-03-08 11:10:00,
2013-03-08 06:15:00,29.7,28.7,29.93,NNE,17,1.0,8.0,96,0.00,,---,0.00,VWS V14.01,2013-03-08 11:15:00,
2013-03-08 06:20:00,29.7,28.7,29.93,NNW,345,3.0,5.0,96,0.00,,---,0.00,VWS V14.01,2013-03-08 11:20:00,
2013-03-08 06:25:00,29.7,28.7,29.93,ENE,59,1.0,4.0,96,0.00,,---,0.00,VWS V14.01,2013-03-08 11:25:00,
2013-03-08 06:30:00,29.7,28.7,29.93,WNW,300,2.0,6.0,96,0.00,,---,0.00,VWS V14.01,2013-03-08 11:30:00,
2013-03-08 06:35:00,29.7,28.7,29.94,North,350,3.0,8.0,96,0.00,,---,0.00,VWS V14.01,2013-03-08 11:35:00,
2013-03-08 06:40:00,29.7,28.7,29.94,North,5,2.0,7.0,96,0.00,,---,0.00,VWS V14.01,2013-03-08 11:40:00,
2013-03-08 06:45:00,29.7,28.7,29.94,NNW,348,0.0,5.0,96,0.00,,---,0.00,VWS V14.01,2013-03-08 11:45:00,
2013-03-08 06:50:00,29.6,28.6,29.95,NE,37,1.0,9.0,96,0.00,,---,0.00,VWS V14.01,2013-03-08 11:50:00,
2013-03-08 06:51:00,29.7,28.7,29.94,WNW,285,3.0,7.0,96,0.00,,---,0.00,VWS V14.01,2013-03-08 11:51:00,
2013-03-08 06:55:00,29.6,28.6,29.94,ENE,62,0.0,11.0,96,0.00,,---,0.00,VWS V14.01,2013-03-08 11:55:00,
2013-03-08 06:56:00,29.7,28.7,29.94,ENE,57,3.0,7.0,96,0.00,,---,0.00,VWS V14.01,2013-03-08 11:56:00,
2013-03-08 07:00:00,29.6,28.6,29.94,NNE,13,6.0,10.0,96,0.00,,---,0.00,VWS V14.01,2013-03-08 12:00:00,
2013-03-08 07:01:00,29.7,28.7,29.94,NNW,329,2.0,10.0,96,0.00,,---,0.00,VWS V14.01,2013-03-08 12:01:00,
2013-03-08 07:05:00,29.6,28.6,29.95,North,5,1.0,6.0,96,0.00,,---,0.00,VWS V14.01,2013-03-08 12:05:00,
2013-03-08 07:06:00,29.6,28.6,29.94,North,355,4.0,4.0,96,0.00,,---,0.00,VWS V14.01,2013-03-08 12:06:00,
2013-03-08 07:10:00,29.7,28.7,29.94,North,5,3.0,5.0,96,0.00,,---,0.00,VWS V14.01,2013-03-08 12:10:00,
2013-03-08 07:11:00,29.7,28.7,29.94,NNW,347,3.0,9.0,96,0.00,,---,0.00,VWS V14.01,2013-03-08 12:11:00,
2013-03-08 07:15:00,29.7,28.7,29.94,East,90,3.0,10.0,96,0.00,,---,0.00,VWS V14.01,2013-03-08 12:15:00,
2013-03-08 07:16:00,29.6,28.6,29.94,NW,323,4.0,5.0,96,0.00,,---,0.00,VWS V14.01,2013-03-08 12:16:00,
2013-03-08 07:20:00,29.7,28.7,29.95,North,350,3.0,5.0,96,0.00,,---,0.00,VWS V14.01,2013-03-08 12:20:00,
2013-03-08 07:21:00,29.6,28.6,29.94,North,5,0.0,5.0,96,0.00,,---,0.00,VWS V14.01,2013-03-08 12:21:00,
2013-03-08 07:25:00,29.7,28.7,29.95,ENE,74,1.0,13.0,96,0.00,,---,0.00,VWS V14.01,2013-03-08 12:25:00,
2013-03-08 07:26:00,29.6,28.6,29.94,NW,311,6.0,11.0,96,0.00,,---,0.00,VWS V14.01,2013-03-08 12:26:00,
2013-03-08 07:30:00,29.7,28.7,29.95,WNW,287,3.0,6.0,96,0.00,,---,0.00,VWS V14.01,2013-03-08 12:30:00,
2013-03-08 07:31:00,29.6,28.6,29.94,North,5,1.0,5.0,96,0.00,,---,0.00,VWS V14.01,2013-03-08 12:31:00,
2013-03-08 07:35:00,29.7,28.7,29.95,North,9,1.0,6.0,96,0.00,,---,0.00,VWS V14.01,2013-03-08 12:35:00,
2013-03-08 07:36:00,29.6,28.6,29.94,NE,55,3.0,6.0,96,0.00,,---,0.00,VWS V14.01,2013-03-08 12:36:00,
2013-03-08 07:40:00,29.7,28.7,29.95,ENE,62,2.0,8.0,96,0.00,,---,0.00,VWS V14.01,2013-03-08 12:40:00,
2013-03-08 07:41:00,29.6,28.6,29.94,NE,53,1.0,7.0,96,0.00,,---,0.00,VWS V14.01,2013-03-08 12:41:00,
2013-03-08 07:45:00,29.7,28.7,29.95,NNW,342,3.0,9.0,96,0.00,,---,0.00,VWS V14.01,2013-03-08 12:45:00,
2013-03-08 07:46:00,29.6,28.6,29.95,NNW,342,2.0,9.0,96,0.00,,---,0.00,VWS V14.01,2013-03-08 12:46:00,
2013-03-08 07:50:00,29.7,28.7,29.95,NNW,329,0.0,5.0,96,0.00,,---,0.00,VWS V14.01,2013-03-08 12:50:00,
2013-03-08 07:52:00,29.6,28.6,29.95,NNW,346,6.0,11.0,96,0.00,,---,0.00,VWS V14.01,2013-03-08 12:52:00,
2013-03-08 07:55:00,29.7,28.7,29.95,NNW,337,5.0,11.0,96,0.00,,---,0.00,VWS V14.01,2013-03-08 12:55:00,
2013-03-08 07:57:00,29.6,28.6,29.94,NNW,338,3.0,6.0,96,0.00,,---,0.00,VWS V14.01,2013-03-08 12:57:00,
2013-03-08 08:00:00,29.7,28.7,29.95,North,360,0.0,9.0,96,0.00,,---,0.00,VWS V14.01,2013-03-08 13:00:00,
2013-03-08 08:02:00,29.6,28.6,29.95,NNE,20,4.0,6.0,96,0.00,,---,0.00,VWS V14.01,2013-03-08 13:02:00,
2013-03-08 08:05:00,29.7,28.7,29.95,NNE,30,2.0,11.0,96,0.00,,---,0.00,VWS V14.01,2013-03-08 13:05:00,
2013-03-08 08:07:00,29.6,28.6,29.94,NNE,22,1.0,5.0,96,0.00,,---,0.00,VWS V14.01,2013-03-08 13:07:00,
2013-03-08 08:10:00,29.7,28.7,29.95,North,360,3.0,8.0,96,0.00,,---,0.00,VWS V14.01,2013-03-08 13:10:00,
2013-03-08 08:12:00,29.7,28.7,29.94,NNW,333,3.0,9.0,96,0.00,,---,0.00,VWS V14.01,2013-03-08 13:12:00,
2013-03-08 08:15:00,29.7,28.7,29.95,NNE,30,4.0,9.0,96,0.00,,---,0.00,VWS V14.01,2013-03-08 13:15:00,
2013-03-08 08:17:00,29.7,28.7,29.95,NNW,340,0.0,5.0,96,0.00,,---,0.00,VWS V14.01,2013-03-08 13:17:00,
2013-03-08 08:20:00,29.8,28.8,29.95,NNW,337,6.0,6.0,96,0.00,,---,0.00,VWS V14.01,2013-03-08 13:20:00,
2013-03-08 08:22:00,29.7,28.7,29.95,NW,326,1.0,13.0,96,0.00,,---,0.00,VWS V14.01,2013-03-08 13:22:00,
2013-03-08 08:25:00,29.8,28.8,29.96,NNW,346,2.0,11.0,96,0.00,,---,0.00,VWS V14.01,2013-03-08 13:25:00,
2013-03-08 08:27:00,29.7,28.7,29.95,NW,311,1.0,6.0,96,0.00,,---,0.00,VWS V14.01,2013-03-08 13:27:00,
2013-03-08 08:30:00,29.8,28.8,29.95,NW,322,6.0,9.0,96,0.00,,---,0.00,VWS V14.01,2013-03-08 13:30:00,
2013-03-08 08:32:00,29.7,28.7,29.95,North,351,3.0,6.0,96,0.00,,---,0.00,VWS V14.01,2013-03-08 13:32:00,
2013-03-08 08:35:00,29.8,28.8,29.95,ENE,59,2.0,6.0,96,0.00,,---,0.00,VWS V14.01,2013-03-08 13:35:00,
2013-03-08 08:37:00,29.7,28.7,29.95,NNW,336,2.0,7.0,96,0.00,,---,0.00,VWS V14.01,2013-03-08 13:37:00,
2013-03-08 08:40:00,29.9,28.9,29.96,NNE,24,1.0,7.0,96,0.00,,---,0.00,VWS V14.01,2013-03-08 13:40:00,
2013-03-08 08:42:00,29.7,28.7,29.95,NNW,340,6.0,9.0,96,0.00,,---,0.00,VWS V14.01,2013-03-08 13:42:00,
2013-03-08 08:45:00,29.9,28.9,29.96,North,355,7.0,9.0,96,0.00,,---,0.00,VWS V14.01,2013-03-08 13:45:00,
2013-03-08 08:47:00,29.7,28.7,29.95,NNW,329,0.0,5.0,96,0.00,,---,0.00,VWS V14.01,2013-03-08 13:47:00,
2013-03-08 08:50:00,30.0,29.0,29.96,ENE,58,5.0,10.0,96,0.00,,---,0.00,VWS V14.01,2013-03-08 13:50:00,
2013-03-08 08:52:00,29.7,28.7,29.95,NE,36,2.0,11.0,96,0.00,,---,0.00,VWS V14.01,2013-03-08 13:52:00,
2013-03-08 08:55:00,30.0,29.0,29.97,NE,54,3.0,11.0,96,0.00,,---,0.00,VWS V14.01,2013-03-08 13:55:00,
2013-03-08 08:57:00,29.7,28.7,29.95,North,360,2.0,9.0,96,0.00,,---,0.00,VWS V14.01,2013-03-08 13:57:00,
2013-03-08 09:00:00,30.1,29.1,29.97,East,82,0.0,6.0,96,0.00,,---,0.00,VWS V14.01,2013-03-08 14:00:00,
2013-03-08 09:02:00,29.7,28.7,29.95,NNW,348,8.0,11.0,96,0.00,,---,0.00,VWS V14.01,2013-03-08 14:02:00,
2013-03-08 09:05:00,30.1,29.1,29.97,WNW,287,1.0,11.0,96,0.00,,---,0.00,VWS V14.01,2013-03-08 14:05:00,
2013-03-08 09:07:00,29.7,28.7,29.95,NW,325,3.0,8.0,96,0.00,,---,0.00,VWS V14.01,2013-03-08 14:07:00,
2013-03-08 09:10:00,30.1,29.1,29.97,NW,316,3.0,11.0,96,0.00,,---,0.00,VWS V14.01,2013-03-08 14:10:00,
2013-03-08 09:12:00,29.7,28.7,29.95,ENE,64,4.0,9.0,96,0.00,,---,0.00,VWS V14.01,2013-03-08 14:12:00,
2013-03-08 09:15:00,30.1,29.1,29.97,ENE,63,2.0,7.0,96,0.00,,---,0.00,VWS V14.01,2013-03-08 14:15:00,
2013-03-08 09:18:00,29.8,28.8,29.95,NNE,32,2.0,4.0,96,0.00,,---,0.00,VWS V14.01,2013-03-08 14:18:00,
2013-03-08 09:20:00,30.1,29.1,29.96,NNE,13,7.0,10.0,96,0.00,,---,0.00,VWS V14.01,2013-03-08 14:20:00,
2013-03-08 09:23:00,29.8,28.8,29.96,NNW,346,2.0,11.0,96,0.00,,---,0.00,VWS V14.01,2013-03-08 14:23:00,
2013-03-08 09:25:00,30.1,29.1,29.96,WNW,288,1.0,7.0,96,0.00,,---,0.00,VWS V14.01,2013-03-08 14:25:00,
2013-03-08 09:28:00,29.8,28.8,29.95,NW,322,6.0,9.0,96,0.00,,---,0.00,VWS V14.01,2013-03-08 14:28:00,
2013-03-08 09:30:00,30.1,29.1,29.96,North,5,0.0,8.0,96,0.00,,---,0.00,VWS V14.01,2013-03-08 14:30:00,
2013-03-08 09:33:00,29.8,28.8,29.95,ENE,59,2.0,6.0,96,0.00,,---,0.00,VWS V14.01,2013-03-08 14:33:00,
2013-03-08 09:35:00,30.2,29.2,29.97,NE,34,1.0,7.0,96,0.00,,---,0.00,VWS V14.01,2013-03-08 14:35:00,
2013-03-08 09:38:00,29.9,28.9,29.96,NNE,24,1.0,7.0,96,0.00,,---,0.00,VWS V14.01,2013-03-08 14:38:00,
2013-03-08 09:40:00,30.2,29.2,29.97,NNW,333,4.0,11.0,96,0.00,,---,0.00,VWS V14.01,2013-03-08 14:40:00,
2013-03-08 09:43:00,29.9,28.9,29.96,North,355,7.0,9.0,96,0.00,,---,0.00,VWS V14.01,2013-03-08 14:43:00,
2013-03-08 09:45:00,30.2,29.2,29.97,NNW,341,3.0,12.0,96,0.00,,---,0.00,VWS V14.01,2013-03-08 14:45:00,
2013-03-08 09:48:00,30.0,29.0,29.96,ENE,58,5.0,10.0,96,0.00,,---,0.00,VWS V14.01,2013-03-08 14:48:00,
2013-03-08 09:50:00,30.3,29.3,29.97,North,355,2.0,9.0,96,0.00,,---,0.00,VWS V14.01,2013-03-08 14:50:00,
2013-03-08 09:53:00,30.0,29.0,29.97,NE,54,3.0,11.0,96,0.00,,---,0.00,VWS V14.01,2013-03-08 14:53:00,
2013-03-08 09:55:00,30.3,29.3,29.97,NNE,13,3.0,9.0,96,0.00,,---,0.00,VWS V14.01,2013-03-08 14:55:00,
2013-03-08 09:58:00,30.1,29.1,29.97,East,82,0.0,6.0,96,0.00,,---,0.00,VWS V14.01,2013-03-08 14:58:00,
2013-03-08 10:00:00,30.4,29.4,29.97,NE,46,4.0,6.0,96,0.00,,---,0.00,VWS V14.01,2013-03-08 15:00:00,
2013-03-08 10:03:00,30.1,29.1,29.97,NNW,346,6.0,10.0,96,0.00,,---,0.00,VWS V14.01,2013-03-08 15:03:00,
2013-03-08 10:05:00,30.5,29.5,29.97,NE,35,9.0,10.0,96,0.00,,---,0.00,VWS V14.01,2013-03-08 15:05:00,
2013-03-08 10:08:00,30.1,29.1,29.97,NNW,342,2.0,4.0,96,0.00,,---,0.00,VWS V14.01,2013-03-08 15:08:00,
2013-03-08 10:10:00,30.6,29.6,29.97,NW,326,5.0,9.0,96,0.00,,---,0.00,VWS V14.01,2013-03-08 15:10:00,
2013-03-08 10:13:00,30.1,29.1,29.97,North,355,3.0,4.0,96,0.00,,---,0.00,VWS V14.01,2013-03-08 15:13:00,
2013-03-08 10:15:00,30.6,29.6,29.97,NNW,347,3.0,9.0,96,0.00,,---,0.00,VWS V14.01,2013-03-08 15:15:00,
2013-03-08 10:19:00,30.1,29.1,29.96,NNW,338,2.0,7.0,96,0.00,,---,0.00,VWS V14.01,2013-03-08 15:19:00,
2013-03-08 10:20:00,30.6,29.6,29.97,NE,49,1.0,11.0,96,0.00,,---,0.00,VWS V14.01,2013-03-08 15:20:00,
2013-03-08 10:24:00,30.1,29.1,29.96,WNW,292,1.0,2.0,96,0.00,,---,0.00,VWS V14.01,2013-03-08 15:24:00,
2013-03-08 10:25:00,30.6,29.6,29.97,NNE,30,1.0,9.0,96,0.00,,---,0.00,VWS V14.01,2013-03-08 15:25:00,
2013-03-08 10:29:00,30.2,29.2,29.96,North,9,2.0,3.0,96,0.00,,---,0.00,VWS V14.01,2013-03-08 15:29:00,
2013-03-08 10:30:00,30.7,29.7,29.97,North,5,2.0,7.0,96,0.00,,---,0.00,VWS V14.01,2013-03-08 15:30:00,
2013-03-08 10:34:00,30.2,29.2,29.97,NE,34,4.0,10.0,96,0.00,,---,0.00,VWS V14.01,2013-03-08 15:34:00,
2013-03-08 10:35:00,30.7,29.7,29.97,ENE,57,1.0,7.0,96,0.00,,---,0.00,VWS V14.01,2013-03-08 15:35:00,
2013-03-08 10:39:00,30.2,29.2,29.97,NNW,329,2.0,9.0,96,0.00,,---,0.00,VWS V14.01,2013-03-08 15:39:00,
2013-03-08 10:40:00,30.8,29.8,29.97,North,11,1.0,7.0,96,0.00,,---,0.00,VWS V14.01,2013-03-08 15:40:00,
2013-03-08 10:44:00,30.3,29.3,29.97,North,5,3.0,4.0,96,0.00,,---,0.00,VWS V14.01,2013-03-08 15:44:00,
2013-03-08 10:45:00,30.9,29.9,29.97,NNE,13,3.0,8.0,96,0.00,,---,0.00,VWS V14.01,2013-03-08 15:45:00,
2013-03-08 10:49:00,30.3,29.3,29.97,North,5,1.0,4.0,96,0.00,,---,0.00,VWS V14.01,2013-03-08 15:49:00,
2013-03-08 10:50:00,31.0,30.0,29.97,WNW,297,3.0,6.0,96,0.00,,---,0.00,VWS V14.01,2013-03-08 15:50:00,
2013-03-08 10:54:00,30.3,29.3,29.96,WNW,298,3.0,6.0,96,0.00,,---,0.00,VWS V14.01,2013-03-08 15:54:00,
2013-03-08 10:55:00,31.0,30.0,29.97,NNE,32,4.0,7.0,96,0.00,,---,0.00,VWS V14.01,2013-03-08 15:55:00,
2013-03-08 10:59:00,30.4,29.4,29.97,ENE,69,1.0,3.0,96,0.00,,---,0.00,VWS V14.01,2013-03-08 15:59:00,
2013-03-08 11:00:00,31.1,30.1,29.98,NNE,19,2.0,10.0,96,0.00,,---,0.00,VWS V14.01,2013-03-08 16:00:00,
2013-03-08 11:04:00,30.5,29.5,29.97,NNW,328,2.0,9.0,96,0.00,,---,0.00,VWS V14.01,2013-03-08 16:04:00,
2013-03-08 11:05:00,31.2,30.2,29.98,NNW,339,2.0,7.0,96,0.00,,---,0.00,VWS V14.01,2013-03-08 16:05:00,
2013-03-08 11:09:00,30.6,29.6,29.97,NW,326,3.0,9.0,96,0.00,,---,0.00,VWS V14.01,2013-03-08 16:09:00,
2013-03-08 11:10:00,31.3,30.3,29.99,NNW,337,0.0,4.0,96,0.00,,---,0.00,VWS V14.01,2013-03-08 16:10:00,
2013-03-08 11:14:00,30.6,29.6,29.97,North,360,3.0,3.0,96,0.00,,---,0.00,VWS V14.01,2013-03-08 16:14:00,
2013-03-08 11:15:00,31.3,30.3,29.98,NNW,338,4.0,9.0,96,0.00,,---,0.00,VWS V14.01,2013-03-08 16:15:00,
2013-03-08 11:19:00,30.6,29.6,29.97,WNW,297,1.0,5.0,96,0.00,,---,0.00,VWS V14.01,2013-03-08 16:19:00,
2013-03-08 11:20:00,31.4,30.4,29.99,NE,38,1.0,7.0,96,0.00,,---,0.00,VWS V14.01,2013-03-08 16:20:00,
2013-03-08 11:24:00,30.6,29.6,29.97,NE,36,3.0,6.0,96,0.00,,---,0.00,VWS V14.01,2013-03-08 16:24:00,
2013-03-08 11:25:00,31.5,30.5,29.98,WNW,303,2.0,11.0,96,0.00,,---,0.00,VWS V14.01,2013-03-08 16:25:00,
2013-03-08 11:30:00,30.7,29.7,29.97,North,10,4.0,5.0,96,0.00,,---,0.00,VWS V14.01,2013-03-08 16:30:00,
2013-03-08 11:35:00,30.8,29.8,29.97,NW,315,6.0,7.0,96,0.00,,---,0.00,VWS V14.01,2013-03-08 16:35:00,
2013-03-08 11:40:00,30.8,29.8,29.97,NNW,337,6.0,8.0,96,0.00,,---,0.00,VWS V14.01,2013-03-08 16:40:00,
2013-03-08 11:45:00,31.0,30.0,29.97,North,351,2.0,4.0,96,0.00,,---,0.00,VWS V14.01,2013-03-08 16:45:00,
2013-03-08 11:50:00,31.0,30.0,29.97,NNE,18,5.0,7.0,96,0.00,,---,0.00,VWS V14.01,2013-03-08 16:50:00,
2013-03-08 11:55:00,31.1,30.1,29.98,North,5,4.0,5.0,96,0.00,,---,0.00,VWS V14.01,2013-03-08 16:55:00,
2013-03-08 12:00:00,31.2,30.2,29.98,NE,35,3.0,4.0,96,0.00,,---,0.00,VWS V14.01,2013-03-08 17:00:00,
2013-03-08 12:05:00,31.3,30.3,29.98,NW,325,3.0,4.0,96,0.00,,---,0.00,VWS V14.01,2013-03-08 17:05:00,
2013-03-08 12:10:00,31.3,30.3,29.99,NNW,344,4.0,9.0,96,0.00,,---,0.00,VWS V14.01,2013-03-08 17:10:00,
2013-03-08 12:15:00,31.4,30.4,29.98,NW,313,4.0,7.0,96,0.00,,---,0.00,VWS V14.01,2013-03-08 17:15:00,
2013-03-08 12:20:00,31.4,30.4,29.99,NW,311,9.0,11.0,96,0.00,,---,0.00,VWS V14.01,2013-03-08 17:20:00,
2013-03-08 12:25:00,31.5,30.5,29.98,North,355,3.0,7.0,96,0.00,,---,0.00,VWS V14.01,2013-03-08 17:25:00,
2013-03-08 12:30:00,31.5,30.5,29.98,NE,41,1.0,9.0,96,0.00,,---,0.00,VWS V14.01,2013-03-08 17:30:00,
2013-03-08 12:35:00,33.0,32.0,29.97,NNW,329,0.0,5.0,96,0.00,,---,0.00,VWS V14.01,2013-03-08 17:35:00,
2013-03-08 12:36:00,31.6,30.6,29.98,NNW,345,0.0,4.0,96,0.00,,---,0.00,VWS V14.01,2013-03-08 17:36:00,
2013-03-08 12:40:00,33.2,32.2,29.97,NNW,328,0.0,2.0,96,0.00,,---,0.00,VWS V14.01,2013-03-08 17:40:00,
2013-03-08 12:41:00,31.7,30.7,29.98,NNW,337,0.0,4.0,96,0.00,,---,0.00,VWS V14.01,2013-03-08 17:41:00,
2013-03-08 12:45:00,33.3,32.0,29.98,West,279,1.0,3.0,95,0.00,,---,0.00,VWS V14.01,2013-03-08 17:45:00,
2013-03-08 12:46:00,31.7,30.7,29.99,ENE,61,0.0,3.0,96,0.00,,---,0.00,VWS V14.01,2013-03-08 17:46:00,
2013-03-08 12:50:00,33.5,32.2,29.98,NNW,336,0.0,4.0,95,0.00,,---,0.00,VWS V14.01,2013-03-08 17:50:00,
2013-03-08 12:51:00,31.9,30.9,29.99,NNW,339,0.0,3.0,96,0.00,,---,0.00,VWS V14.01,2013-03-08 17:51:00,
2013-03-08 12:55:00,33.7,32.4,29.97,NW,306,1.0,6.0,95,0.00,,---,0.00,VWS V14.01,2013-03-08 17:55:00,
2013-03-08 12:56:00,32.0,31.0,29.98,NNE,23,3.0,7.0,96,0.00,,---,0.00,VWS V14.01,2013-03-08 17:56:00,
2013-03-08 13:00:00,34.1,32.3,29.97,NNW,327,5.0,6.0,93,0.00,,---,0.00,VWS V14.01,2013-03-08 18:00:00,
2013-03-08 13:01:00,32.1,31.1,29.99,NE,35,2.0,5.0,96,0.00,,---,0.00,VWS V14.01,2013-03-08 18:01:00,
2013-03-08 13:05:00,34.4,32.0,29.97,NNE,32,0.0,6.0,91,0.00,,---,0.00,VWS V14.01,2013-03-08 18:05:00,
2013-03-08 13:06:00,32.1,31.1,29.98,SSE,150,3.0,6.0,96,0.00,,---,0.00,VWS V14.01,2013-03-08 18:06:00,
2013-03-08 13:10:00,34.8,32.2,29.97,NW,308,2.0,5.0,90,0.00,,---,0.00,VWS V14.01,2013-03-08 18:10:00,
2013-03-08 13:11:00,32.3,31.3,29.98,NNW,336,0.0,4.0,96,0.00,,---,0.00,VWS V14.01,2013-03-08 18:11:00,
2013-03-08 13:15:00,35.2,32.0,29.97,North,360,2.0,5.0,88,0.00,,---,0.00,VWS V14.01,2013-03-08 18:15:00,
2013-03-08 13:16:00,32.4,31.4,29.98,NNW,335,0.0,5.0,96,0.00,,---,0.00,VWS V14.01,2013-03-08 18:16:00,
2013-03-08 13:20:00,35.6,31.8,29.97,NNE,16,3.0,7.0,86,0.00,,---,0.00,VWS V14.01,2013-03-08 18:20:00,
2013-03-08 13:21:00,32.6,31.6,29.98,WNW,298,2.0,3.0,96,0.00,,---,0.00,VWS V14.01,2013-03-08 18:21:00,
2013-03-08 13:25:00,36.0,31.9,29.97,North,350,2.0,6.0,85,0.00,,---,0.00,VWS V14.01,2013-03-08 18:25:00,
2013-03-08 13:26:00,32.8,31.8,29.98,WNW,294,2.0,6.0,96,0.00,,---,0.00,VWS V14.01,2013-03-08 18:26:00,
2013-03-08 13:30:00,36.3,31.3,29.98,NNW,336,3.0,6.0,82,0.00,,---,0.00,VWS V14.01,2013-03-08 18:30:00,
2013-03-08 13:31:00,32.9,31.9,29.98,NNW,329,3.0,5.0,96,0.00,,---,0.00,VWS V14.01,2013-03-08 18:31:00,
2013-03-08 13:35:00,36.5,31.5,29.98,North,360,0.0,4.0,82,0.00,,---,0.00,VWS V14.01,2013-03-08 18:35:00,
2013-03-08 13:37:00,33.1,32.1,29.97,NNW,328,0.0,2.0,96,0.00,,---,0.00,VWS V14.01,2013-03-08 18:37:00,
2013-03-08 13:40:00,36.6,31.6,29.98,NNW,331,2.0,5.0,82,0.00,,---,0.00,VWS V14.01,2013-03-08 18:40:00,
2013-03-08 13:42:00,33.3,32.0,29.98,NW,319,2.0,3.0,95,0.00,,---,0.00,VWS V14.01,2013-03-08 18:42:00,
2013-03-08 13:45:00,36.8,31.2,29.98,NNE,31,3.0,7.0,80,0.00,,---,0.00,VWS V14.01,2013-03-08 18:45:00,
2013-03-08 13:47:00,33.4,32.1,29.98,NNW,336,0.0,4.0,95,0.00,,---,0.00,VWS V14.01,2013-03-08 18:47:00,
2013-03-08 13:50:00,37.0,31.1,29.98,North,355,1.0,9.0,79,0.00,,---,0.00,VWS V14.01,2013-03-08 18:50:00,
2013-03-08 13:52:00,33.7,32.4,29.97,NNE,19,0.0,6.0,95,0.00,,---,0.00,VWS V14.01,2013-03-08 18:52:00,
2013-03-08 13:55:00,37.1,31.2,29.98,NW,324,0.0,5.0,79,0.00,,---,0.00,VWS V14.01,2013-03-08 18:55:00,
2013-03-08 13:57:00,34.0,32.2,29.97,NNW,335,4.0,5.0,93,0.00,,---,0.00,VWS V14.01,2013-03-08 18:57:00,
2013-03-08 14:00:00,37.2,31.0,29.98,NNE,33,0.0,5.0,78,0.00,,---,0.00,VWS V14.01,2013-03-08 19:00:00,
2013-03-08 14:02:00,34.4,32.3,29.97,NNE,32,1.0,6.0,92,0.00,,---,0.00,VWS V14.01,2013-03-08 19:02:00,
2013-03-08 14:05:00,37.4,31.2,29.98,ENE,61,3.0,5.0,78,0.00,,---,0.00,VWS V14.01,2013-03-08 19:05:00,
2013-03-08 14:07:00,34.7,32.1,29.97,NNE,30,2.0,5.0,90,0.00,,---,0.00,VWS V14.01,2013-03-08 19:07:00,
2013-03-08 14:10:00,37.4,30.9,29.98,ENE,57,0.0,4.0,77,0.00,,---,0.00,VWS V14.01,2013-03-08 19:10:00,
2013-03-08 14:12:00,35.1,31.9,29.97,North,350,0.0,5.0,88,0.00,,---,0.00,VWS V14.01,2013-03-08 19:12:00,
2013-03-08 14:15:00,37.5,31.3,29.99,ENE,72,2.0,5.0,78,0.01,,---,0.01,VWS V14.01,2013-03-08 19:15:00,
2013-03-08 14:17:00,35.5,32.0,29.97,NNW,327,2.0,7.0,87,0.00,,---,0.00,VWS V14.01,2013-03-08 19:17:00,
2013-03-08 14:20:00,37.6,31.4,29.99,ENE,68,1.0,2.0,78,0.01,,---,0.01,VWS V14.01,2013-03-08 19:20:00,
2013-03-08 14:22:00,35.9,31.8,29.97,NNW,341,5.0,6.0,85,0.00,,---,0.00,VWS V14.01,2013-03-08 19:22:00,
2013-03-08 14:25:00,37.7,31.5,29.99,NNW,347,3.0,6.0,78,0.01,,---,0.01,VWS V14.01,2013-03-08 19:25:00,
2013-03-08 14:27:00,36.3,31.6,29.98,North,360,2.0,6.0,83,0.00,,---,0.00,VWS V14.01,2013-03-08 19:27:00,
2013-03-08 14:30:00,37.8,31.6,29.99,North,355,3.0,4.0,78,0.01,,---,0.01,VWS V14.01,2013-03-08 19:30:00,
2013-03-08 14:32:00,36.5,31.5,29.98,North,360,1.0,4.0,82,0.00,,---,0.00,VWS V14.01,2013-03-08 19:32:00,
2013-03-08 14:35:00,37.9,31.4,29.99,NNE,32,3.0,4.0,77,0.01,,---,0.01,VWS V14.01,2013-03-08 19:35:00,
2013-03-08 14:37:00,36.6,31.6,29.98,NNE,18,2.0,5.0,82,0.00,,---,0.00,VWS V14.01,2013-03-08 19:37:00,
2013-03-08 14:40:00,38.1,30.9,30.00,North,350,0.0,4.0,75,0.01,,---,0.01,VWS V14.01,2013-03-08 19:40:00,
2013-03-08 14:42:00,36.8,31.2,29.98,SW,221,0.0,7.0,80,0.00,,---,0.00,VWS V14.01,2013-03-08 19:42:00,
2013-03-08 14:45:00,38.2,32.0,30.00,NNW,340,4.0,4.0,78,0.01,,---,0.01,VWS V14.01,2013-03-08 19:45:00,
2013-03-08 14:47:00,37.0,31.1,29.98,North,355,3.0,9.0,79,0.00,,---,0.00,VWS V14.01,2013-03-08 19:47:00,
2013-03-08 14:50:00,38.3,31.4,30.00,North,10,3.0,4.0,76,0.02,,---,0.02,VWS V14.01,2013-03-08 19:50:00,
2013-03-08 14:53:00,37.1,31.2,29.98,NW,324,2.0,5.0,79,0.00,,---,0.00,VWS V14.01,2013-03-08 19:53:00,
2013-03-08 14:55:00,38.5,31.6,30.00,North,9,2.0,6.0,76,0.02,,---,0.02,VWS V14.01,2013-03-08 19:55:00,
2013-03-08 14:58:00,37.2,31.0,29.98,NNE,33,2.0,5.0,78,0.00,,---,0.00,VWS V14.01,2013-03-08 19:58:00,
2013-03-08 15:00:00,38.8,30.9,30.01,NNW,344,2.0,5.0,73,0.02,,---,0.02,VWS V14.01,2013-03-08 20:00:00,
2013-03-08 15:03:00,37.4,31.2,29.98,East,98,2.0,5.0,78,0.00,,---,0.00,VWS V14.01,2013-03-08 20:03:00,
2013-03-08 15:05:00,39.1,30.9,30.01,NNE,31,0.0,6.0,72,0.02,,---,0.02,VWS V14.01,2013-03-08 20:05:00,
2013-03-08 15:08:00,37.4,30.9,29.98,ENE,57,0.0,4.0,77,0.00,,---,0.00,VWS V14.01,2013-03-08 20:08:00,
2013-03-08 15:10:00,39.3,30.7,30.01,NNW,335,3.0,4.0,71,0.02,,---,0.02,VWS V14.01,2013-03-08 20:10:00,
2013-03-08 15:13:00,37.5,31.3,29.99,ENE,72,2.0,5.0,78,0.01,,---,0.01,VWS V14.01,2013-03-08 20:13:00,
2013-03-08 15:15:00,39.5,31.6,30.01,NNW,335,0.0,5.0,73,0.03,,---,0.03,VWS V14.01,2013-03-08 20:15:00,
2013-03-08 15:18:00,37.6,31.4,29.99,ENE,68,1.0,2.0,78,0.01,,---,0.01,VWS V14.01,2013-03-08 20:18:00,
2013-03-08 15:20:00,39.4,30.8,30.01,NNW,340,0.0,4.0,71,0.02,,---,0.03,VWS V14.01,2013-03-08 20:20:00,
2013-03-08 15:23:00,37.7,31.5,29.99,NNW,347,3.0,6.0,78,0.01,,---,0.01,VWS V14.01,2013-03-08 20:23:00,
2013-03-08 15:25:00,39.4,31.8,30.02,NNW,344,2.0,3.0,74,0.02,,---,0.03,VWS V14.01,2013-03-08 20:25:00,
2013-03-08 15:28:00,37.8,31.6,29.99,North,355,3.0,4.0,78,0.01,,---,0.01,VWS V14.01,2013-03-08 20:28:00,
2013-03-08 15:30:00,39.4,31.1,30.02,NW,326,0.0,3.0,72,0.03,,---,0.04,VWS V14.01,2013-03-08 20:30:00,
2013-03-08 15:33:00,37.9,31.4,29.99,NNE,32,3.0,4.0,77,0.01,,---,0.01,VWS V14.01,2013-03-08 20:33:00,
2013-03-08 15:35:00,39.5,30.5,30.02,NW,307,1.0,5.0,70,0.03,,---,0.04,VWS V14.01,2013-03-08 20:35:00,
2013-03-08 15:38:00,38.1,30.9,30.00,North,350,0.0,0.0,75,0.01,,---,0.01,VWS V14.01,2013-03-08 20:38:00,
2013-03-08 15:40:00,39.6,31.3,30.02,NW,317,0.0,3.0,72,0.04,,---,0.05,VWS V14.01,2013-03-08 20:40:00,
2013-03-08 15:43:00,38.2,32.0,30.00,NNE,15,3.0,4.0,78,0.01,,---,0.01,VWS V14.01,2013-03-08 20:43:00,
2013-03-08 15:45:00,39.7,31.1,30.02,West,278,1.0,3.0,71,0.04,,---,0.05,VWS V14.01,2013-03-08 20:45:00,
2013-03-08 15:48:00,38.3,31.4,30.00,North,355,3.0,3.0,76,0.02,,---,0.02,VWS V14.01,2013-03-08 20:48:00,
2013-03-08 15:50:00,39.6,31.0,30.02,NW,321,0.0,2.0,71,0.04,,---,0.05,VWS V14.01,2013-03-08 20:50:00,
2013-03-08 15:53:00,38.5,31.0,30.00,North,9,0.0,2.0,74,0.02,,---,0.02,VWS V14.01,2013-03-08 20:53:00,
2013-03-08 15:55:00,39.5,30.5,30.03,NW,320,0.0,2.0,70,0.03,,---,0.05,VWS V14.01,2013-03-08 20:55:00,
2013-03-08 15:58:00,38.8,30.9,30.00,North,355,5.0,5.0,73,0.02,,---,0.02,VWS V14.01,2013-03-08 20:58:00,
2013-03-08 16:00:00,39.4,31.1,30.03,NW,321,0.0,2.0,72,0.04,,---,0.06,VWS V14.01,2013-03-08 21:00:00,
2013-03-08 16:03:00,39.1,30.9,30.01,NNE,31,0.0,1.0,72,0.02,,---,0.02,VWS V14.01,2013-03-08 21:03:00,
2013-03-08 16:05:00,39.2,30.6,30.03,NW,321,0.0,2.0,71,0.04,,---,0.06,VWS V14.01,2013-03-08 21:05:00,
2013-03-08 16:08:00,39.3,31.0,30.01,NNE,28,2.0,4.0,72,0.02,,---,0.02,VWS V14.01,2013-03-08 21:08:00,
2013-03-08 16:10:00,39.0,30.8,30.03,NW,313,0.0,3.0,72,0.05,,---,0.07,VWS V14.01,2013-03-08 21:10:00,
2013-03-08 16:14:00,39.5,30.9,30.01,NNW,335,1.0,1.0,71,0.02,,---,0.03,VWS V14.01,2013-03-08 21:14:00,
2013-03-08 16:15:00,38.9,30.0,30.03,NNW,329,0.0,2.0,70,0.05,,---,0.07,VWS V14.01,2013-03-08 21:15:00,
2013-03-08 16:19:00,39.4,31.1,30.01,NNW,340,0.0,3.0,72,0.02,,---,0.03,VWS V14.01,2013-03-08 21:19:00,
2013-03-08 16:20:00,39.1,29.8,30.03,NNW,332,0.0,6.0,69,0.04,,---,0.07,VWS V14.01,2013-03-08 21:20:00,
2013-03-08 16:24:00,39.4,31.8,30.02,NNW,337,1.0,3.0,74,0.02,,---,0.03,VWS V14.01,2013-03-08 21:24:00,
2013-03-08 16:25:00,39.3,30.4,30.03,NW,320,0.0,2.0,70,0.04,,---,0.07,VWS V14.01,2013-03-08 21:25:00,
2013-03-08 16:29:00,39.4,30.8,30.02,NW,326,0.0,0.0,71,0.03,,---,0.04,VWS V14.01,2013-03-08 21:29:00,
2013-03-08 16:30:00,39.3,30.0,30.03,NW,321,1.0,2.0,69,0.05,,---,0.08,VWS V14.01,2013-03-08 21:30:00,
2013-03-08 16:34:00,39.6,30.3,30.02,NW,307,1.0,1.0,69,0.03,,---,0.04,VWS V14.01,2013-03-08 21:34:00,
2013-03-08 16:35:00,39.2,30.6,30.03,NW,319,0.0,3.0,71,0.04,,---,0.08,VWS V14.01,2013-03-08 21:35:00,
2013-03-08 16:39:00,39.6,31.0,30.02,NW,317,0.0,2.0,71,0.04,,---,0.05,VWS V14.01,2013-03-08 21:39:00,
2013-03-08 16:40:00,38.9,31.0,30.04,West,279,0.0,3.0,73,0.04,,---,0.08,VWS V14.01,2013-03-08 21:40:00,
2013-03-08 16:44:00,39.6,31.0,30.02,West,278,1.0,2.0,71,0.04,,---,0.05,VWS V14.01,2013-03-08 21:44:00,
2013-03-08 16:45:00,38.6,30.7,30.04,West,279,0.0,2.0,73,0.04,,---,0.09,VWS V14.01,2013-03-08 21:45:00,
2013-03-08 16:49:00,39.5,30.5,30.02,NW,321,1.0,2.0,70,0.03,,---,0.05,VWS V14.01,2013-03-08 21:49:00,
2013-03-08 16:50:00,38.3,30.8,30.04,West,274,2.0,2.0,74,0.04,,---,0.09,VWS V14.01,2013-03-08 21:50:00,
2013-03-08 16:54:00,39.5,30.9,30.03,NW,321,0.0,2.0,71,0.03,,---,0.05,VWS V14.01,2013-03-08 21:54:00,
2013-03-08 16:55:00,38.3,30.1,30.04,West,263,0.0,3.0,72,0.04,,---,0.09,VWS V14.01,2013-03-08 21:55:00,
2013-03-08 16:59:00,39.3,30.7,30.03,NW,321,0.0,2.0,71,0.04,,---,0.06,VWS V14.01,2013-03-08 21:59:00,
2013-03-08 17:00:00,38.2,30.3,30.05,NNW,327,1.0,3.0,73,0.04,,---,0.09,VWS V14.01,2013-03-08 22:00:00,
2013-03-08 17:04:00,39.2,30.6,30.03,NW,321,1.0,2.0,71,0.04,,---,0.06,VWS V14.01,2013-03-08 22:04:00,
2013-03-08 17:05:00,38.3,30.1,30.05,WNW,294,1.0,4.0,72,0.03,,---,0.09,VWS V14.01,2013-03-08 22:05:00,
2013-03-08 17:09:00,39.0,31.1,30.03,NW,312,0.0,2.0,73,0.05,,---,0.07,VWS V14.01,2013-03-08 22:09:00,
2013-03-08 17:10:00,38.6,30.0,30.05,North,11,1.0,5.0,71,0.03,,---,0.09,VWS V14.01,2013-03-08 22:10:00,
2013-03-08 17:15:00,38.9,29.6,30.03,NW,326,1.0,2.0,69,0.04,,---,0.07,VWS V14.01,2013-03-08 22:15:00,
2013-03-08 17:20:00,39.2,29.5,30.03,NNW,332,0.0,2.0,68,0.04,,---,0.07,VWS V14.01,2013-03-08 22:20:00,
2013-03-08 17:25:00,39.3,30.0,30.03,NW,320,1.0,2.0,69,0.04,,---,0.07,VWS V14.01,2013-03-08 22:25:00,
2013-03-08 17:30:00,39.3,30.4,30.03,NW,321,0.0,2.0,70,0.04,,---,0.08,VWS V14.01,2013-03-08 22:30:00,
2013-03-08 17:35:00,39.1,30.9,30.03,NW,317,1.0,3.0,72,0.04,,---,0.08,VWS V14.01,2013-03-08 22:35:00,
2013-03-08 17:40:00,38.8,30.6,30.04,West,279,2.0,2.0,72,0.03,,---,0.08,VWS V14.01,2013-03-08 22:40:00,
2013-03-08 17:45:00,38.5,31.0,30.04,West,279,1.0,2.0,74,0.04,,---,0.09,VWS V14.01,2013-03-08 22:45:00,
2013-03-08 17:50:00,38.3,30.4,30.04,WNW,292,0.0,3.0,73,0.04,,---,0.09,VWS V14.01,2013-03-08 22:50:00,
2013-03-08 17:55:00,38.2,30.7,30.04,West,263,0.0,2.0,74,0.04,,---,0.09,VWS V14.01,2013-03-08 22:55:00,
2013-03-08 18:00:00,38.2,30.0,30.05,NW,309,1.0,3.0,72,0.03,,---,0.09,VWS V14.01,2013-03-08 23:00:00,
2013-03-08 18:05:00,40.5,27.7,30.06,NNW,344,1.0,6.0,60,0.03,,---,0.12,VWS V14.01,2013-03-08 23:05:00,
2013-03-08 18:06:00,38.4,29.5,30.05,North,11,1.0,5.0,70,0.03,,---,0.09,VWS V14.01,2013-03-08 23:06:00,
2013-03-08 18:10:00,40.5,26.9,30.06,NNW,336,0.0,2.0,58,0.03,,---,0.12,VWS V14.01,2013-03-08 23:10:00,
2013-03-08 18:11:00,38.6,30.0,30.05,North,355,0.0,2.0,71,0.03,,---,0.10,VWS V14.01,2013-03-08 23:11:00,
2013-03-08 18:15:00,40.6,27.4,30.06,NNE,15,1.0,4.0,59,0.03,,---,0.12,VWS V14.01,2013-03-08 23:15:00,
2013-03-08 18:16:00,38.7,29.1,30.05,NW,319,0.0,2.0,68,0.03,,---,0.10,VWS V14.01,2013-03-08 23:16:00,
2013-03-08 18:20:00,40.5,27.3,30.06,NW,313,3.0,4.0,59,0.02,,---,0.12,VWS V14.01,2013-03-08 23:20:00,
2013-03-08 18:21:00,38.8,29.9,30.06,NW,319,0.0,3.0,70,0.03,,---,0.10,VWS V14.01,2013-03-08 23:21:00,
2013-03-08 18:25:00,40.5,27.3,30.07,North,355,1.0,4.0,59,0.03,,---,0.13,VWS V14.01,2013-03-08 23:25:00,
2013-03-08 18:26:00,38.9,28.9,30.05,North,350,1.0,3.0,67,0.03,,---,0.10,VWS V14.01,2013-03-08 23:26:00,
2013-03-08 18:30:00,40.4,28.0,30.07,NW,321,2.0,5.0,61,0.03,,---,0.13,VWS V14.01,2013-03-08 23:30:00,
2013-03-08 18:31:00,39.0,29.0,30.06,NW,305,0.0,5.0,67,0.03,,---,0.11,VWS V14.01,2013-03-08 23:31:00,
2013-03-08 18:35:00,40.5,26.5,30.07,NNW,332,5.0,6.0,57,0.02,,---,0.13,VWS V14.01,2013-03-08 23:35:00,
2013-03-08 18:36:00,39.2,28.1,30.06,NW,321,1.0,5.0,64,0.03,,---,0.11,VWS V14.01,2013-03-08 23:36:00,
2013-03-08 18:40:00,40.6,26.6,30.07,NE,46,4.0,10.0,57,0.02,,---,0.13,VWS V14.01,2013-03-08 23:40:00,
2013-03-08 18:41:00,39.6,28.4,30.06,NNE,19,1.0,4.0,64,0.03,,---,0.11,VWS V14.01,2013-03-08 23:41:00,
2013-03-08 18:45:00,40.7,27.1,30.07,NNW,339,1.0,6.0,58,0.02,,---,0.13,VWS V14.01,2013-03-08 23:45:00,
2013-03-08 18:46:00,39.9,28.3,30.06,NNW,337,0.0,4.0,63,0.02,,---,0.11,VWS V14.01,2013-03-08 23:46:00,
2013-03-08 18:50:00,40.5,27.3,30.07,NNW,346,2.0,5.0,59,0.02,,---,0.13,VWS V14.01,2013-03-08 23:50:00,
2013-03-08 18:52:00,40.1,27.8,30.06,North,351,0.0,5.0,61,0.02,,---,0.11,VWS V14.01,2013-03-08 23:52:00,
2013-03-08 18:55:00,40.2,26.6,30.08,North,355,0.0,4.0,58,0.02,,---,0.13,VWS V14.01,2013-03-08 23:55:00,
2013-03-08 18:57:00,40.4,28.8,30.06,NE,38,1.0,4.0,63,0.02,,---,0.11,VWS V14.01,2013-03-08 23:57:00,
2013-03-08 19:00:00,40.1,26.5,30.08,NNW,342,0.0,5.0,58,0.02,,---,0.13,VWS V14.01,2013-03-09 00:00:00,
2013-03-08 19:02:00,40.5,27.3,30.06,NNW,344,0.0,6.0,59,0.03,,---,0.12,VWS V14.01,2013-03-09 00:02:00,
2013-03-08 19:05:00,39.9,26.8,30.08,NNE,26,1.0,5.0,59,0.01,,---,0.13,VWS V14.01,2013-03-09 00:05:00,
2013-03-08 19:07:00,40.5,27.3,30.06,NNW,336,0.0,2.0,59,0.03,,---,0.12,VWS V14.01,2013-03-09 00:07:00,
2013-03-08 19:10:00,39.7,26.6,30.08,North,360,0.0,3.0,59,0.02,,---,0.14,VWS V14.01,2013-03-09 00:10:00,
2013-03-08 19:12:00,40.6,27.8,30.06,NNE,15,2.0,4.0,60,0.03,,---,0.12,VWS V14.01,2013-03-09 00:12:00,
2013-03-08 19:15:00,39.4,27.5,30.08,North,5,0.0,3.0,62,0.02,,---,0.14,VWS V14.01,2013-03-09 00:15:00,
2013-03-08 19:17:00,40.5,27.3,30.06,NNE,21,2.0,4.0,59,0.02,,---,0.12,VWS V14.01,2013-03-09 00:17:00,
2013-03-08 19:20:00,38.9,27.4,30.09,North,5,0.0,2.0,63,0.02,,---,0.14,VWS V14.01,2013-03-09 00:20:00,
2013-03-08 19:22:00,40.5,27.3,30.07,North,355,1.0,4.0,59,0.03,,---,0.13,VWS V14.01,2013-03-09 00:22:00,
2013-03-08 19:25:00,38.5,27.0,30.09,NNW,329,0.0,4.0,63,0.02,,---,0.14,VWS V14.01,2013-03-09 00:25:00,
2013-03-08 19:27:00,40.4,28.0,30.07,NW,322,2.0,5.0,61,0.03,,---,0.13,VWS V14.01,2013-03-09 00:27:00,
2013-03-08 19:30:00,38.3,26.0,30.09,NNW,340,1.0,5.0,61,0.01,,---,0.14,VWS V14.01,2013-03-09 00:30:00,
2013-03-08 19:32:00,40.5,26.5,30.07,NNW,331,2.0,6.0,57,0.02,,---,0.13,VWS V14.01,2013-03-09 00:32:00,
2013-03-08 19:35:00,38.4,26.5,30.09,NNW,338,0.0,4.0,62,0.01,,---,0.14,VWS V14.01,2013-03-09 00:35:00,
2013-03-08 19:38:00,40.6,26.6,30.07,NE,46,4.0,10.0,57,0.02,,---,0.13,VWS V14.01,2013-03-09 00:38:00,
2013-03-08 19:40:00,38.3,26.4,30.09,NNW,344,1.0,4.0,62,0.01,,---,0.14,VWS V14.01,2013-03-09 00:40:00,
2013-03-08 19:43:00,40.7,27.1,30.07,NNW,339,1.0,6.0,58,0.02,,---,0.13,VWS V14.01,2013-03-09 00:43:00,
2013-03-08 19:45:00,38.3,26.0,30.09,NNW,340,1.0,3.0,61,0.01,,---,0.14,VWS V14.01,2013-03-09 00:45:00,
2013-03-08 19:48:00,40.5,27.3,30.07,NNW,346,2.0,5.0,59,0.02,,---,0.13,VWS V14.01,2013-03-09 00:48:00,
2013-03-08 19:50:00,38.3,25.6,30.09,North,355,0.0,2.0,60,0.01,,---,0.14,VWS V14.01,2013-03-09 00:50:00,
2013-03-08 19:53:00,40.2,26.6,30.08,North,355,0.0,4.0,58,0.02,,---,0.13,VWS V14.01,2013-03-09 00:53:00,
2013-03-08 19:55:00,38.3,26.4,30.10,NNW,342,2.0,4.0,62,0.01,,---,0.14,VWS V14.01,2013-03-09 00:55:00,
2013-03-08 19:58:00,40.1,26.5,30.08,NNW,342,0.0,5.0,58,0.02,,---,0.13,VWS V14.01,2013-03-09 00:58:00,
2013-03-08 20:00:00,38.1,26.2,30.10,North,360,1.0,3.0,62,0.01,,---,0.14,VWS V14.01,2013-03-09 01:00:00,
2013-03-08 20:03:00,39.9,26.8,30.08,NNE,26,1.0,5.0,59,0.01,,---,0.13,VWS V14.01,2013-03-09 01:03:00,
2013-03-08 20:05:00,38.0,25.8,30.10,NNW,331,0.0,3.0,61,0.01,,---,0.14,VWS V14.01,2013-03-09 01:05:00,
2013-03-08 20:08:00,39.7,26.6,30.08,North,360,0.0,3.0,59,0.02,,---,0.14,VWS V14.01,2013-03-09 01:08:00,
2013-03-08 20:10:00,37.9,25.3,30.10,NW,319,0.0,3.0,60,0.01,,---,0.14,VWS V14.01,2013-03-09 01:10:00,
2013-03-08 20:13:00,39.4,27.5,30.09,North,5,0.0,0.0,62,0.02,,---,0.14,VWS V14.01,2013-03-09 01:13:00,
2013-03-08 20:15:00,37.8,25.6,30.10,NW,320,0.0,4.0,61,0.00,,---,0.14,VWS V14.01,2013-03-09 01:15:00,
2013-03-08 20:18:00,38.9,27.4,30.08,North,11,0.0,1.0,63,0.02,,---,0.14,VWS V14.01,2013-03-09 01:18:00,
2013-03-08 20:20:00,37.7,25.5,30.10,NNE,22,3.0,4.0,61,0.00,,---,0.14,VWS V14.01,2013-03-09 01:20:00,
2013-03-08 20:23:00,38.4,26.9,30.09,NW,309,2.0,3.0,63,0.01,,---,0.14,VWS V14.01,2013-03-09 01:23:00,
2013-03-08 20:25:00,37.6,25.8,30.10,NNE,22,0.0,3.0,62,0.01,,---,0.15,VWS V14.01,2013-03-09 01:25:00,
2013-03-08 20:29:00,38.3,26.0,30.09,NNW,339,0.0,2.0,61,0.01,,---,0.14,VWS V14.01,2013-03-09 01:29:00,
2013-03-08 20:30:00,37.6,25.4,30.10,NE,34,1.0,5.0,61,0.01,,---,0.15,VWS V14.01,2013-03-09 01:30:00,
2013-03-08 20:34:00,38.4,26.1,30.09,NW,319,1.0,4.0,61,0.01,,---,0.14,VWS V14.01,2013-03-09 01:34:00,
2013-03-08 20:35:00,37.5,25.3,30.10,NNE,32,0.0,4.0,61,0.01,,---,0.15,VWS V14.01,2013-03-09 01:35:00,
2013-03-08 20:39:00,38.3,26.0,30.09,NNW,344,1.0,2.0,61,0.01,,---,0.14,VWS V14.01,2013-03-09 01:39:00,
2013-03-08 20:40:00,37.4,25.2,30.10,NNW,331,3.0,3.0,61,0.01,,---,0.15,VWS V14.01,2013-03-09 01:40:00,
2013-03-08 20:44:00,38.3,26.0,30.09,NNW,348,1.0,2.0,61,0.01,,---,0.14,VWS V14.01,2013-03-09 01:44:00,
2013-03-08 20:45:00,37.1,25.7,30.10,NNW,330,0.0,3.0,63,0.01,,---,0.15,VWS V14.01,2013-03-09 01:45:00,
2013-03-08 20:49:00,38.3,26.0,30.09,NNW,340,1.0,2.0,61,0.01,,---,0.14,VWS V14.01,2013-03-09 01:49:00,
2013-03-08 20:50:00,36.8,24.6,30.11,WNW,298,0.0,3.0,61,0.01,,---,0.15,VWS V14.01,2013-03-09 01:50:00,
2013-03-08 20:54:00,38.2,26.0,30.10,NNW,347,1.0,3.0,61,0.01,,---,0.14,VWS V14.01,2013-03-09 01:54:00,
2013-03-08 20:55:00,36.8,25.4,30.11,NW,317,1.0,4.0,63,0.01,,---,0.15,VWS V14.01,2013-03-09 01:55:00,
2013-03-08 20:59:00,38.0,25.8,30.10,North,351,0.0,2.0,61,0.01,,---,0.14,VWS V14.01,2013-03-09 01:59:00,
2013-03-08 21:00:00,36.7,25.3,30.11,NNW,331,0.0,3.0,63,0.01,,---,0.15,VWS V14.01,2013-03-09 02:00:00,
2013-03-08 21:04:00,38.0,25.8,30.10,NNW,332,0.0,2.0,61,0.01,,---,0.14,VWS V14.01,2013-03-09 02:04:00,
2013-03-08 21:05:00,36.3,25.3,30.11,North,5,0.0,3.0,64,0.01,,---,0.15,VWS V14.01,2013-03-09 02:05:00,
2013-03-08 21:09:00,37.9,25.7,30.10,North,5,0.0,4.0,61,0.00,,---,0.14,VWS V14.01,2013-03-09 02:09:00,
2013-03-08 21:10:00,36.0,25.0,30.11,North,5,0.0,2.0,64,0.01,,---,0.15,VWS V14.01,2013-03-09 02:10:00,
2013-03-08 21:15:00,37.7,25.1,30.10,NW,320,0.0,1.0,60,0.00,,---,0.14,VWS V14.01,2013-03-09 02:15:00,
2013-03-08 21:20:00,37.7,25.1,30.10,NNE,22,0.0,3.0,60,0.00,,---,0.14,VWS V14.01,2013-03-09 02:20:00,
2013-03-08 21:25:00,37.6,25.0,30.10,NNW,334,3.0,4.0,60,0.01,,---,0.15,VWS V14.01,2013-03-09 02:25:00,
2013-03-08 21:30:00,37.6,25.4,30.09,North,355,2.0,4.0,61,0.01,,---,0.15,VWS V14.01,2013-03-09 02:30:00,
2013-03-08 21:35:00,37.5,25.3,30.10,NNE,25,0.0,2.0,61,0.01,,---,0.15,VWS V14.01,2013-03-09 02:35:00,
2013-03-08 21:40:00,37.3,25.1,30.10,NNW,331,1.0,3.0,61,0.01,,---,0.15,VWS V14.01,2013-03-09 02:40:00,
2013-03-08 21:45:00,37.0,25.6,30.11,NNW,330,0.0,1.0,63,0.01,,---,0.15,VWS V14.01,2013-03-09 02:45:00,
2013-03-08 21:50:00,36.7,25.3,30.11,WNW,300,0.0,4.0,63,0.01,,---,0.15,VWS V14.01,2013-03-09 02:50:00,
2013-03-08 21:55:00,36.8,25.4,30.11,NNW,331,2.0,3.0,63,0.01,,---,0.15,VWS V14.01,2013-03-09 02:55:00,
2013-03-08 22:00:00,36.5,25.5,30.11,NNW,344,0.0,2.0,64,0.01,,---,0.15,VWS V14.01,2013-03-09 03:00:00,
2013-03-08 22:05:00,36.2,25.2,30.11,North,5,0.0,1.0,64,0.01,,---,0.15,VWS V14.01,2013-03-09 03:05:00,
2013-03-08 22:10:00,35.9,25.3,30.11,North,5,0.0,2.0,65,0.01,,---,0.15,VWS V14.01,2013-03-09 03:10:00,
2013-03-08 22:15:00,35.7,25.1,30.11,North,5,2.0,2.0,65,0.01,,---,0.15,VWS V14.01,2013-03-09 03:15:00,
2013-03-08 22:20:00,35.5,24.5,30.11,NW,304,2.0,2.0,64,0.01,,---,0.15,VWS V14.01,2013-03-09 03:20:00,
2013-03-08 22:25:00,35.5,24.2,30.11,NNE,12,0.0,2.0,63,0.00,,---,0.15,VWS V14.01,2013-03-09 03:25:00,
2013-03-08 22:30:00,35.6,24.3,30.11,North,5,0.0,4.0,63,0.00,,---,0.15,VWS V14.01,2013-03-09 03:30:00,
2013-03-08 22:35:00,32.8,24.1,30.11,West,259,2.0,2.0,70,0.00,,---,0.15,VWS V14.01,2013-03-09 03:35:00,
2013-03-08 22:36:00,36.1,24.4,30.11,NNW,339,0.0,3.0,62,0.00,,---,0.15,VWS V14.01,2013-03-09 03:36:00,
2013-03-08 22:40:00,32.6,23.9,30.11,West,259,1.0,2.0,70,0.00,,---,0.15,VWS V14.01,2013-03-09 03:40:00,
2013-03-08 22:41:00,36.3,24.5,30.11,NNW,339,0.0,2.0,62,0.00,,---,0.15,VWS V14.01,2013-03-09 03:41:00,
2013-03-08 22:45:00,32.6,23.6,30.11,West,268,1.0,3.0,69,0.00,,---,0.15,VWS V14.01,2013-03-09 03:45:00,
2013-03-08 22:46:00,36.2,24.8,30.11,NNW,328,0.0,3.0,63,0.00,,---,0.15,VWS V14.01,2013-03-09 03:46:00,
2013-03-08 22:50:00,32.4,23.7,30.11,WNW,298,0.0,2.0,70,0.00,,---,0.15,VWS V14.01,2013-03-09 03:50:00,
2013-03-08 22:51:00,36.2,24.5,30.11,NNW,346,0.0,5.0,62,0.00,,---,0.15,VWS V14.01,2013-03-09 03:51:00,
2013-03-08 22:55:00,32.1,23.4,30.11,WNW,293,0.0,2.0,70,0.00,,---,0.15,VWS V14.01,2013-03-09 03:55:00,
2013-03-08 22:56:00,36.4,25.0,30.11,NW,309,1.0,2.0,63,0.00,,---,0.15,VWS V14.01,2013-03-09 03:56:00,
2013-03-08 23:00:00,32.0,23.3,30.11,NW,315,0.0,4.0,70,0.00,,---,0.00,VWS V14.01,2013-03-09 04:00:00,
2013-03-08 23:01:00,36.0,25.0,30.11,NW,309,1.0,2.0,64,0.00,,---,0.15,VWS V14.01,2013-03-09 04:01:00,
2013-03-08 23:05:00,32.0,23.3,30.11,NW,315,0.0,1.0,70,0.00,,---,0.00,VWS V14.01,2013-03-09 04:05:00,
2013-03-08 23:06:00,35.1,24.5,30.11,WNW,294,0.0,2.0,65,0.00,,---,0.15,VWS V14.01,2013-03-09 04:06:00,
2013-03-08 23:10:00,31.8,23.5,30.12,NW,315,1.0,2.0,71,0.00,,---,0.00,VWS V14.01,2013-03-09 04:10:00,
2013-03-08 23:11:00,34.4,24.6,30.11,WNW,294,1.0,2.0,67,0.00,,---,0.15,VWS V14.01,2013-03-09 04:11:00,
2013-03-08 23:15:00,31.7,23.0,30.12,NW,314,0.0,2.0,70,0.00,,---,0.00,VWS V14.01,2013-03-09 04:15:00,
2013-03-08 23:16:00,33.8,24.4,30.11,WNW,295,0.0,1.0,68,0.00,,---,0.15,VWS V14.01,2013-03-09 04:16:00,
2013-03-08 23:20:00,31.6,22.6,30.12,NW,314,0.0,2.0,69,0.00,,---,0.00,VWS V14.01,2013-03-09 04:20:00,
2013-03-08 23:21:00,33.2,24.1,30.11,WNW,293,0.0,2.0,69,0.00,,---,0.15,VWS V14.01,2013-03-09 04:21:00,
2013-03-08 23:25:00,31.4,22.8,30.12,NW,314,1.0,2.0,70,0.00,,---,0.00,VWS V14.01,2013-03-09 04:25:00,
2013-03-08 23:26:00,32.9,23.9,30.10,WNW,284,0.0,3.0,69,0.00,,---,0.15,VWS V14.01,2013-03-09 04:26:00,
2013-03-08 23:30:00,31.1,22.5,30.12,North,351,2.0,3.0,70,0.00,,---,0.00,VWS V14.01,2013-03-09 04:30:00,
2013-03-08 23:31:00,32.8,23.8,30.11,West,259,2.0,2.0,69,0.00,,---,0.15,VWS V14.01,2013-03-09 04:31:00,
2013-03-08 23:35:00,30.6,22.3,30.12,NW,325,0.0,3.0,71,0.00,,---,0.00,VWS V14.01,2013-03-09 04:35:00,
2013-03-08 23:36:00,32.7,23.7,30.11,West,259,1.0,2.0,69,0.00,,---,0.15,VWS V14.01,2013-03-09 04:36:00,
2013-03-08 23:40:00,30.3,22.4,30.12,NW,325,0.0,2.0,72,0.00,,---,0.00,VWS V14.01,2013-03-09 04:40:00,
2013-03-08 23:41:00,32.6,23.9,30.11,West,268,2.0,3.0,70,0.00,,---,0.15,VWS V14.01,2013-03-09 04:41:00,
2013-03-08 23:45:00,30.2,22.6,30.12,NW,317,0.0,2.0,73,0.00,,---,0.00,VWS V14.01,2013-03-09 04:45:00,
2013-03-08 23:46:00,32.5,23.8,30.11,WNW,298,0.0,2.0,70,0.00,,---,0.15,VWS V14.01,2013-03-09 04:46:00,
2013-03-08 23:50:00,30.1,22.5,30.12,NW,317,0.0,1.0,73,0.00,,---,0.00,VWS V14.01,2013-03-09 04:50:00,
2013-03-08 23:51:00,32.3,23.6,30.11,WNW,292,1.0,2.0,70,0.00,,---,0.15,VWS V14.01,2013-03-09 04:51:00,
2013-03-08 23:55:00,29.9,22.3,30.12,NW,317,0.0,1.0,73,0.00,,---,0.00,VWS V14.01,2013-03-09 04:55:00,
2013-03-08 23:56:00,32.0,23.3,30.11,NW,312,1.0,4.0,70,0.00,,---,0.15,VWS V14.01,2013-03-09 04:56:00,